createdAt,value
2023-06-30T00:04:33.548Z,101254.88
2023-06-30T00:09:34.966Z,101248.22
2023-06-30T00:14:36.351Z,101240.78
2023-06-30T00:19:37.763Z,101237.44
2023-06-30T00:24:39.138Z,101234.47
2023-06-30T00:29:40.552Z,101233.28
2023-06-30T00:34:42.225Z,101240.75
2023-06-30T00:39:43.591Z,101236.81
2023-06-30T00:44:45.095Z,101236.31
2023-06-30T00:49:46.757Z,101236.44
2023-06-30T00:54:48.162Z,101242.59
2023-06-30T00:59:50.394Z,101247.81
2023-06-30T01:05:09.450Z,101248.97
2023-06-30T01:10:15.769Z,101244.81
2023-06-30T01:15:17.649Z,101256.75
2023-06-30T01:20:19.815Z,101250.38
2023-06-30T01:25:23.520Z,101247.16
2023-06-30T01:30:25.208Z,101244.19
2023-06-30T01:35:27.472Z,101240.84
2023-06-30T01:40:29.351Z,101232.66
2023-06-30T01:45:31.375Z,101222.84
2023-06-30T01:50:33.347Z,101217.97
2023-06-30T01:55:34.718Z,101210.97
2023-06-30T02:00:36.103Z,101219.97
2023-06-30T02:05:37.466Z,101229.19
2023-06-30T02:10:38.935Z,101239.72
2023-06-30T02:15:40.590Z,101234.13
2023-06-30T02:20:41.976Z,101231.06
2023-06-30T02:25:43.594Z,101244.69
2023-06-30T02:30:45.343Z,101257.31
2023-06-30T02:35:47.088Z,101257.19
2023-06-30T02:40:49.126Z,101246.88
2023-06-30T02:45:50.534Z,101251.16
2023-06-30T02:50:51.966Z,101247.81
2023-06-30T02:55:53.458Z,101250.72
2023-06-30T03:00:55.646Z,101247.72
2023-06-30T03:05:57.408Z,101246.38
2023-06-30T03:10:58.907Z,101241.56
2023-06-30T03:16:00.369Z,101240.50
2023-06-30T03:21:02.832Z,101236.22
2023-06-30T03:26:04.326Z,101234.56
2023-06-30T03:31:05.788Z,101229.25
2023-06-30T03:36:07.670Z,101242.19
2023-06-30T03:41:09.102Z,101240.63
2023-06-30T03:46:10.548Z,101245.09
2023-06-30T03:51:11.940Z,101241.50
2023-06-30T03:56:13.321Z,101236.91
2023-06-30T04:01:14.696Z,101226.47
2023-06-30T04:06:16.071Z,101222.34
2023-06-30T04:11:17.659Z,101224.00
2023-06-30T04:16:19.084Z,101228.56
2023-06-30T04:21:20.469Z,101228.22
2023-06-30T04:26:21.859Z,101217.06
2023-06-30T04:31:23.318Z,101222.75
2023-06-30T04:36:24.693Z,101237.63
2023-06-30T04:41:26.256Z,101251.03
2023-06-30T04:46:28.479Z,101245.50
2023-06-30T04:51:29.894Z,101256.50
2023-06-30T04:56:31.284Z,101250.88
2023-06-30T05:01:32.744Z,101248.94
2023-06-30T05:06:34.148Z,101248.94
2023-06-30T05:11:35.528Z,101264.16
2023-06-30T05:16:37.006Z,101268.19
2023-06-30T05:21:38.457Z,101277.44
2023-06-30T05:26:39.816Z,101273.22
2023-06-30T05:31:41.264Z,101266.66
2023-06-30T05:36:45.689Z,101248.75
2023-06-30T05:41:47.076Z,101255.25
2023-06-30T05:46:48.520Z,101260.22
2023-06-30T05:51:49.941Z,101258.22
2023-06-30T05:56:51.336Z,101272.34
2023-06-30T06:01:54.000Z,101269.13
2023-06-30T06:06:55.424Z,101279.09
2023-06-30T06:11:56.860Z,101278.47
2023-06-30T06:16:58.380Z,101264.63
2023-06-30T06:21:59.786Z,101267.81
2023-06-30T06:27:01.157Z,101258.81
2023-06-30T06:32:02.553Z,101259.00
2023-06-30T06:37:03.999Z,101261.00
2023-06-30T06:42:05.586Z,101267.97
2023-06-30T06:47:25.943Z,101261.97
2023-06-30T06:52:27.323Z,101259.78
2023-06-30T06:57:28.769Z,101279.09
2023-06-30T07:02:30.194Z,101271.78
2023-06-30T07:07:33.504Z,101283.69
2023-06-30T07:12:35.073Z,101294.44
2023-06-30T07:17:36.741Z,101296.59
2023-06-30T07:22:38.257Z,101295.41
2023-06-30T07:27:39.668Z,101294.09
2023-06-30T07:32:42.493Z,101299.19
2023-06-30T07:37:44.448Z,101298.50
2023-06-30T07:42:46.012Z,101290.97
2023-06-30T07:47:47.559Z,101288.91
2023-06-30T07:52:50.169Z,101288.09
2023-06-30T07:57:51.525Z,101287.44
2023-06-30T08:02:53.517Z,101285.28
2023-06-30T08:07:55.070Z,101290.72
2023-06-30T08:12:56.447Z,101286.66
2023-06-30T08:17:58.542Z,101288.31
2023-06-30T08:23:00.211Z,101287.16
2023-06-30T08:28:01.597Z,101286.63
2023-06-30T08:33:03.038Z,101283.31
2023-06-30T08:38:05.253Z,101285.72
2023-06-30T08:43:10.521Z,101283.47
2023-06-30T08:48:13.194Z,101284.19
2023-06-30T08:53:14.665Z,101289.38
2023-06-30T08:58:25.705Z,101279.75
2023-06-30T09:03:28.517Z,101285.44
2023-06-30T09:08:36.732Z,101277.94
2023-06-30T09:13:39.459Z,101281.81
2023-06-30T09:18:40.931Z,101289.22
2023-06-30T09:23:42.402Z,101283.13
2023-06-30T09:28:44.318Z,101291.16
2023-06-30T09:33:45.743Z,101285.34
2023-06-30T09:38:47.183Z,101285.47
2023-06-30T09:43:48.633Z,101287.06
2023-06-30T09:48:53.888Z,101285.44
2023-06-30T09:53:55.350Z,101283.16
2023-06-30T09:58:57.513Z,101286.81
2023-06-30T10:03:59.000Z,101288.44
2023-06-30T10:09:01.874Z,101282.59
2023-06-30T10:14:03.462Z,101276.09
2023-06-30T10:19:06.057Z,101275.25
2023-06-30T10:24:08.190Z,101277.00
2023-06-30T10:29:10.128Z,101281.28
2023-06-30T10:34:12.274Z,101283.91
2023-06-30T10:39:14.166Z,101274.63
2023-06-30T10:44:15.808Z,101271.88
2023-06-30T10:49:17.979Z,101270.19
2023-06-30T10:54:23.028Z,101262.13
2023-06-30T10:59:24.611Z,101257.88
2023-06-30T11:04:26.150Z,101256.31
2023-06-30T11:09:27.662Z,101249.31
2023-06-30T11:14:32.055Z,101230.91
2023-06-30T11:19:35.816Z,101236.19
2023-06-30T11:24:37.274Z,101238.75
2023-06-30T11:29:39.718Z,101235.81
2023-06-30T11:34:41.183Z,101232.69
2023-06-30T11:39:50.007Z,101219.13
2023-06-30T11:44:51.786Z,101213.53
2023-06-30T11:49:53.183Z,101212.69
2023-06-30T11:54:54.562Z,101210.41
2023-06-30T11:59:56.000Z,101210.41
2023-06-30T12:04:57.439Z,101210.59
2023-06-30T12:10:02.241Z,101204.84
2023-06-30T12:15:04.676Z,101201.50
2023-06-30T12:20:06.557Z,101196.41
2023-06-30T12:25:11.433Z,101191.16
2023-06-30T12:30:19.548Z,101195.50
2023-06-30T12:35:27.688Z,101188.22
2023-06-30T12:40:29.162Z,101187.63
2023-06-30T12:45:31.123Z,101189.44
2023-06-30T12:50:33.235Z,101180.84
2023-06-30T12:55:34.645Z,101183.63
2023-06-30T13:00:36.072Z,101173.94
2023-06-30T13:05:37.826Z,101176.03
2023-06-30T13:10:39.241Z,101174.19
2023-06-30T13:15:40.650Z,101159.38
2023-06-30T13:20:44.071Z,101169.63
2023-06-30T13:25:45.814Z,101169.00
2023-06-30T13:35:49.093Z,101185.00
2023-06-30T13:40:50.480Z,101180.69
2023-06-30T13:45:51.952Z,101178.38
2023-06-30T13:50:53.439Z,101167.53
2023-06-30T13:55:56.690Z,101176.53
2023-06-30T14:00:58.173Z,101178.22
2023-06-30T14:05:59.657Z,101163.50
2023-06-30T14:11:01.107Z,101153.44
2023-06-30T14:16:02.509Z,101140.19
2023-06-30T14:21:03.918Z,101139.56
2023-06-30T14:26:05.363Z,101140.25
2023-06-30T14:31:06.765Z,101139.47
2023-06-30T14:36:08.186Z,101148.38
2023-06-30T14:41:09.577Z,101141.81
2023-06-30T14:46:11.005Z,101130.47
2023-06-30T14:51:12.417Z,101138.88
2023-06-30T14:56:13.828Z,101136.81
2023-06-30T15:01:15.231Z,101124.06
2023-06-30T15:06:16.753Z,101118.69
2023-06-30T15:11:18.179Z,101120.31
2023-06-30T15:16:19.681Z,101117.53
2023-06-30T15:21:21.104Z,101125.03
2023-06-30T15:26:22.498Z,101120.47
2023-06-30T15:31:23.880Z,101119.69
2023-06-30T15:36:25.263Z,101120.16
2023-06-30T15:41:26.654Z,101116.13
2023-06-30T15:46:28.076Z,101115.09
2023-06-30T15:51:29.854Z,101111.25
2023-06-30T15:56:31.259Z,101114.44
2023-06-30T16:01:32.634Z,101113.34
2023-06-30T16:06:34.012Z,101110.59
2023-06-30T16:11:35.427Z,101119.03
2023-06-30T16:16:36.950Z,101122.34
2023-06-30T16:21:38.354Z,101108.72
2023-06-30T16:26:39.759Z,101108.81
2023-06-30T16:31:41.180Z,101117.28
2023-06-30T16:36:42.577Z,101111.31
2023-06-30T16:41:43.989Z,101101.69
2023-06-30T16:46:45.378Z,101104.44
2023-06-30T16:51:47.061Z,101102.88
2023-06-30T16:56:48.465Z,101098.50
2023-06-30T17:01:56.101Z,101097.84
2023-06-30T17:06:58.081Z,101097.34
2023-06-30T17:11:59.649Z,101100.06
2023-06-30T17:17:01.110Z,101096.47
2023-06-30T17:22:02.550Z,101104.13
2023-06-30T17:27:04.015Z,101102.38
2023-06-30T17:32:05.656Z,101092.84
2023-06-30T17:37:07.912Z,101088.34
2023-06-30T17:42:09.449Z,101094.13
2023-06-30T17:47:10.999Z,101086.75
2023-06-30T17:52:13.072Z,101094.97
2023-06-30T17:57:14.621Z,101085.16
2023-06-30T18:02:16.143Z,101077.66
2023-06-30T18:07:17.639Z,101086.94
2023-06-30T18:12:19.186Z,101084.47
2023-06-30T18:17:20.624Z,101079.22
2023-06-30T18:22:24.416Z,101079.63
2023-06-30T18:27:25.913Z,101074.13
2023-06-30T18:32:27.864Z,101074.25
2023-06-30T18:37:29.517Z,101076.47
2023-06-30T18:42:30.892Z,101069.69
2023-06-30T18:47:32.476Z,101063.88
2023-06-30T18:52:33.914Z,101053.88
2023-06-30T18:57:35.413Z,101056.06
2023-06-30T19:02:36.868Z,101061.84
2023-06-30T19:07:38.331Z,101053.50
2023-06-30T19:12:39.703Z,101048.16
2023-06-30T19:17:41.121Z,101046.41
2023-06-30T19:22:42.515Z,101047.19
2023-06-30T19:27:43.876Z,101052.88
2023-06-30T19:32:45.328Z,101057.22
2023-06-30T19:37:46.752Z,101058.09
2023-06-30T19:42:48.117Z,101062.41
2023-06-30T19:47:49.513Z,101056.53
2023-06-30T19:52:50.970Z,101060.34
2023-06-30T19:57:53.835Z,101055.25
2023-06-30T20:02:55.248Z,101056.09
2023-06-30T20:07:56.683Z,101049.16
2023-06-30T20:12:58.076Z,101040.13
2023-06-30T20:17:59.476Z,101040.91
2023-06-30T20:23:00.896Z,101032.72
2023-06-30T20:28:02.253Z,101030.25
2023-06-30T20:33:03.789Z,101021.28
2023-06-30T20:38:05.176Z,101006.78
2023-06-30T20:43:06.558Z,101012.94
2023-06-30T20:48:08.973Z,101020.16
2023-06-30T20:53:10.451Z,101012.59
2023-06-30T20:58:11.817Z,101004.06
2023-06-30T21:03:13.401Z,100998.50
2023-06-30T21:08:14.845Z,100993.09
2023-06-30T21:13:16.215Z,100992.50
2023-06-30T21:18:17.577Z,100991.34
2023-06-30T21:23:18.974Z,100983.66
2023-06-30T21:28:20.423Z,100974.75
2023-06-30T21:33:21.800Z,100966.91
2023-06-30T21:38:23.158Z,100960.28
2023-06-30T21:43:24.554Z,100955.31
2023-06-30T21:48:25.880Z,100957.19
2023-06-30T21:53:27.290Z,100954.44
2023-06-30T21:58:28.687Z,100936.56
2023-06-30T22:03:30.767Z,100938.09
2023-06-30T22:08:32.173Z,100931.34
2023-06-30T22:13:33.519Z,100925.31
2023-06-30T22:18:34.915Z,100917.69
2023-06-30T22:23:36.321Z,100920.31
2023-06-30T22:28:37.797Z,100914.03
2023-06-30T22:33:39.166Z,100902.53
2023-06-30T22:38:40.613Z,100905.50
2023-06-30T22:43:41.977Z,100902.06
2023-06-30T22:48:43.358Z,100894.34
2023-06-30T22:53:44.729Z,100890.09
2023-06-30T22:58:46.105Z,100881.91
2023-06-30T23:03:47.557Z,100877.25
2023-06-30T23:08:48.971Z,100862.44
2023-06-30T23:13:50.363Z,100869.91
2023-06-30T23:18:51.835Z,100860.44
2023-06-30T23:23:53.271Z,100873.09
2023-06-30T23:28:55.121Z,100859.50
2023-06-30T23:33:56.480Z,100841.81
2023-06-30T23:38:58.050Z,100848.94
2023-06-30T23:43:59.406Z,100837.47
2023-06-30T23:49:00.814Z,100831.63
2023-06-30T23:54:02.197Z,100827.72
2023-06-30T23:59:03.582Z,100821.69
